Time;durP1;ratioP1;P1;durP2;ratioP2;P2;SDS_P1;SDS_P2;PMS_P1;PMS_P2;Temp;Humidity;BMP_temperature;BMP_pressure;BME280_temperature;BME280_humidity;BME280_pressure;Samples;Min_cycle;Max_cycle;Signal;HPM_P1;HPM_P2
2022/07/08 00:00:14;;;;;;;1999.90;999.90;;;19.30;99.90;;;;;;5036330;28;20052;-73
2022/07/08 00:02:40;;;;;;;1999.90;999.90;;;19.30;99.90;;;;;;5025887;28;20486;-76
2022/07/08 00:05:06;;;;;;;1999.90;999.90;;;19.30;99.90;;;;;;5032220;28;20061;-76
2022/07/08 00:07:31;;;;;;;1999.90;999.90;;;19.30;99.90;;;;;;5014475;28;20360;-75
2022/07/08 00:09:57;;;;;;;1999.90;999.90;;;19.20;99.90;;;;;;5032915;28;20026;-76
2022/07/08 00:12:23;;;;;;;1999.90;999.90;;;19.10;99.90;;;;;;5031387;28;20033;-73
2022/07/08 00:14:48;;;;;;;1999.90;999.90;;;19.10;99.90;;;;;;5032323;28;20095;-73
2022/07/08 00:17:14;;;;;;;1999.90;999.90;;;19.10;99.90;;;;;;5035277;28;20512;-73
2022/07/08 00:19:39;;;;;;;1999.90;999.90;;;19.00;99.90;;;;;;5032111;28;20026;-73
2022/07/08 00:22:05;;;;;;;1999.90;999.90;;;19.00;99.90;;;;;;5032115;28;20029;-73
2022/07/08 00:24:31;;;;;;;1999.90;999.90;;;18.90;99.90;;;;;;5032003;28;20453;-76
2022/07/08 00:26:57;;;;;;;1999.90;999.90;;;18.80;99.90;;;;;;5032383;28;20029;-73
2022/07/08 00:29:22;;;;;;;1999.90;999.90;;;18.80;99.90;;;;;;5032604;28;20503;-76
2022/07/08 00:31:48;;;;;;;1999.90;999.90;;;18.70;99.90;;;;;;5032144;28;20036;-74
2022/07/08 00:34:14;;;;;;;1999.90;999.90;;;18.70;99.90;;;;;;5036025;28;20546;-76
2022/07/08 00:36:39;;;;;;;1999.90;999.90;;;18.60;99.90;;;;;;5036237;28;20035;-76
2022/07/08 00:39:05;;;;;;;1999.90;999.90;;;18.60;99.90;;;;;;5058868;28;20047;-73
2022/07/08 00:41:31;;;;;;;1999.90;999.90;;;18.60;99.90;;;;;;5036239;28;20028;-76
2022/07/08 00:43:56;;;;;;;1999.90;999.90;;;18.50;99.90;;;;;;5046987;28;20049;-73
2022/07/08 00:46:22;;;;;;;1999.90;999.90;;;18.50;99.90;;;;;;5036120;28;20033;-76
2022/07/08 00:48:48;;;;;;;1999.90;999.90;;;18.50;99.90;;;;;;5018283;28;20117;-75
2022/07/08 00:51:17;;;;;;;1999.90;999.90;;;18.40;99.90;;;;;;5018224;28;20124;-73
2022/07/08 00:53:47;;;;;;;1999.90;999.90;;;18.40;99.90;;;;;;5035694;28;20480;-73
2022/07/08 00:56:13;;;;;;;1999.90;999.90;;;18.40;99.90;;;;;;5036007;28;20373;-73
2022/07/08 00:58:40;;;;;;;1999.90;999.90;;;18.30;99.90;;;;;;5035959;28;20029;-76
2022/07/08 01:01:06;;;;;;;1999.90;999.90;;;18.30;99.90;;;;;;5047313;28;20428;-75
2022/07/08 01:03:32;;;;;;;1999.90;999.90;;;18.20;99.90;;;;;;5040863;28;20026;-76
2022/07/08 01:05:58;;;;;;;1999.90;999.90;;;18.20;99.90;;;;;;5035764;28;20030;-73
2022/07/08 01:08:24;;;;;;;1999.90;999.90;;;18.20;99.90;;;;;;5038673;28;20092;-73
2022/07/08 01:10:51;;;;;;;1999.90;999.90;;;18.10;99.90;;;;;;5046298;28;20465;-73
2022/07/08 01:13:18;;;;;;;1999.90;999.90;;;18.00;99.90;;;;;;5050570;28;20025;-73
2022/07/08 01:15:44;;;;;;;1999.90;999.90;;;18.00;99.90;;;;;;5054854;28;20476;-73
2022/07/08 01:18:22;;;;;;;1999.90;999.90;;;17.90;99.90;;;;;;5038719;28;20025;-73
2022/07/08 01:20:48;;;;;;;1999.90;999.90;;;17.90;99.90;;;;;;5035596;28;20025;-76
2022/07/08 01:23:14;;;;;;;1999.90;999.90;;;17.90;99.90;;;;;;5034781;28;20037;-75
2022/07/08 01:25:39;;;;;;;1999.90;999.90;;;17.90;99.90;;;;;;5035626;28;20481;-73
2022/07/08 01:28:05;;;;;;;1999.90;999.90;;;17.80;99.90;;;;;;5035309;28;20040;-76
2022/07/08 01:30:31;;;;;;;1999.90;999.90;;;17.80;99.90;;;;;;5035461;28;20101;-73
2022/07/08 01:32:56;;;;;;;1999.90;999.90;;;17.80;99.90;;;;;;5035013;28;20044;-73
2022/07/08 01:35:22;;;;;;;1999.90;999.90;;;17.70;99.90;;;;;;5035106;28;20473;-73
2022/07/08 01:37:48;;;;;;;1999.90;999.90;;;17.70;99.90;;;;;;5038366;28;21304;-75
2022/07/08 01:40:13;;;;;;;1999.90;999.90;;;17.70;99.90;;;;;;5052432;28;20480;-75
2022/07/08 01:42:39;;;;;;;1999.90;999.90;;;17.70;99.90;;;;;;5035930;28;20033;-73
2022/07/08 01:45:06;;;;;;;1999.90;999.90;;;17.70;99.90;;;;;;5043240;28;20025;-75
2022/07/08 01:47:31;;;;;;;1999.90;999.90;;;17.70;99.90;;;;;;5034883;28;20025;-76
2022/07/08 01:49:57;;;;;;;1999.90;999.90;;;17.60;99.90;;;;;;5017079;28;20038;-75
2022/07/08 01:52:23;;;;;;;1999.90;999.90;;;17.70;99.90;;;;;;5034699;28;20030;-76
2022/07/08 01:54:51;;;;;;;1999.90;999.90;;;17.70;99.90;;;;;;5034501;28;20017;-73
2022/07/08 01:57:18;;;;;;;1999.90;999.90;;;17.70;99.90;;;;;;5034852;28;20033;-75
2022/07/08 01:59:50;;;;;;;1999.90;999.90;;;17.70;99.90;;;;;;5034885;28;20021;-75
2022/07/08 02:02:18;;;;;;;1999.90;999.90;;;17.70;99.90;;;;;;5049308;28;20105;-73
2022/07/08 02:04:44;;;;;;;1999.90;999.90;;;17.70;99.90;;;;;;5034866;28;20031;-76
2022/07/08 02:07:10;;;;;;;1999.90;999.90;;;17.70;99.90;;;;;;5034470;28;20079;-76
2022/07/08 02:09:37;;;;;;;1999.90;999.90;;;17.70;99.90;;;;;;5047481;28;20096;-73
2022/07/08 02:12:19;;;;;;;1999.90;999.90;;;17.60;99.90;;;;;;5054244;28;20028;-73
2022/07/08 02:14:45;;;;;;;1999.90;999.90;;;17.60;99.90;;;;;;5053762;28;20024;-73
2022/07/08 02:17:11;;;;;;;1999.90;999.90;;;17.60;99.90;;;;;;5045698;28;20388;-76
2022/07/08 02:19:36;;;;;;;1999.90;999.90;;;17.60;99.90;;;;;;5034214;28;20029;-76
2022/07/08 02:22:03;;;;;;;1999.90;999.90;;;17.50;99.90;;;;;;5034126;28;20032;-75
2022/07/08 02:24:28;;;;;;;1999.90;999.90;;;17.50;99.90;;;;;;5034037;28;20025;-73
2022/07/08 02:26:54;;;;;;;1999.90;999.90;;;17.40;99.90;;;;;;5034382;28;20516;-73
2022/07/08 02:29:20;;;;;;;1999.90;999.90;;;17.40;99.90;;;;;;5034130;28;20083;-75
2022/07/08 02:31:45;;;;;;;1999.90;999.90;;;17.30;99.90;;;;;;5034340;28;20032;-73
2022/07/08 02:34:11;;;;;;;1999.90;999.90;;;17.30;99.90;;;;;;5033695;28;20036;-73
2022/07/08 02:36:37;;;;;;;1999.90;999.90;;;17.30;99.90;;;;;;5034191;28;20033;-73
2022/07/08 02:39:04;;;;;;;1999.90;999.90;;;17.30;99.90;;;;;;5056528;28;20103;-73
2022/07/08 02:41:29;;;;;;;1999.90;999.90;;;17.20;99.90;;;;;;5016049;28;20022;-73
2022/07/08 02:43:55;;;;;;;1999.90;999.90;;;17.20;99.90;;;;;;5044520;28;20100;-76
2022/07/08 02:46:21;;;;;;;1999.90;999.90;;;17.10;99.90;;;;;;5033907;28;20030;-73
2022/07/08 02:48:47;;;;;;;1999.90;999.90;;;17.10;99.90;;;;;;5033688;28;20041;-73
2022/07/08 02:51:12;;;;;;;1999.90;999.90;;;17.10;99.90;;;;;;5033843;28;20176;-75
2022/07/08 02:53:38;;;;;;;1999.90;999.90;;;17.10;99.90;;;;;;5033312;28;20405;-73
2022/07/08 02:56:04;;;;;;;1999.90;999.90;;;17.00;99.90;;;;;;5033535;28;20040;-75
2022/07/08 02:58:30;;;;;;;1999.90;999.90;;;17.00;99.90;;;;;;5033650;28;20037;-73
2022/07/08 03:00:55;;;;;;;1999.90;999.90;;;17.00;99.90;;;;;;5043544;28;20063;-73
2022/07/08 03:03:21;;;;;;;1999.90;999.90;;;17.00;99.90;;;;;;5039220;28;20025;-73
2022/07/08 03:05:46;;;;;;;1999.90;999.90;;;17.00;99.90;;;;;;5033612;28;20396;-73
2022/07/08 03:08:12;;;;;;;1999.90;999.90;;;17.00;99.90;;;;;;5034957;28;20032;-75
2022/07/08 03:10:38;;;;;;;1999.90;999.90;;;17.00;99.90;;;;;;5046211;28;20025;-76
2022/07/08 03:13:03;;;;;;;1999.90;999.90;;;17.00;99.90;;;;;;5047432;28;20033;-73
2022/07/08 03:15:29;;;;;;;1999.90;999.90;;;17.00;99.90;;;;;;5053241;28;20039;-73
2022/07/08 03:17:55;;;;;;;1999.90;999.90;;;16.90;99.90;;;;;;5038648;28;20021;-74
2022/07/08 03:20:20;;;;;;;1999.90;999.90;;;16.90;99.90;;;;;;5033600;28;20060;-76
2022/07/08 03:22:46;;;;;;;1999.90;999.90;;;16.90;99.90;;;;;;5015167;28;20022;-73
2022/07/08 03:25:12;;;;;;;1999.90;999.90;;;16.80;99.90;;;;;;5033533;28;20028;-73
2022/07/08 03:27:38;;;;;;;1999.90;999.90;;;16.70;99.90;;;;;;5033220;28;20021;-75
2022/07/08 03:30:05;;;;;;;1999.90;999.90;;;16.70;99.90;;;;;;5033227;28;20029;-73
2022/07/08 03:32:30;;;;;;;1999.90;999.90;;;16.60;99.90;;;;;;5032047;28;20032;-73
2022/07/08 03:34:56;;;;;;;1999.90;999.90;;;16.60;99.90;;;;;;5032340;28;20033;-75
2022/07/08 03:37:22;;;;;;;1999.90;999.90;;;16.60;99.90;;;;;;5033013;28;20037;-75
2022/07/08 03:39:48;;;;;;;1999.90;999.90;;;16.50;99.90;;;;;;5056371;28;20151;-75
2022/07/08 03:42:14;;;;;;;1999.90;999.90;;;16.50;99.90;;;;;;5033289;28;20049;-73
2022/07/08 03:44:40;;;;;;;1999.90;999.90;;;16.50;99.90;;;;;;5050213;28;20504;-73
2022/07/08 03:47:06;;;;;;;1999.90;999.90;;;16.50;99.90;;;;;;5039615;28;20026;-75
2022/07/08 03:49:31;;;;;;;1999.90;999.90;;;16.40;99.90;;;;;;5015071;28;20037;-75
2022/07/08 03:51:57;;;;;;;1999.90;999.90;;;16.30;99.90;;;;;;5032303;28;20060;-75
2022/07/08 03:54:23;;;;;;;1999.90;999.90;;;16.40;99.90;;;;;;5042505;28;20022;-73
2022/07/08 03:56:48;;;;;;;1999.90;999.90;;;16.30;99.90;;;;;;5032832;28;20032;-73
2022/07/08 03:59:14;;;;;;;1999.90;999.90;;;16.30;99.90;;;;;;5032743;28;20025;-75
2022/07/08 04:01:40;;;;;;;1999.90;999.90;;;16.30;99.90;;;;;;5047734;28;20021;-75
2022/07/08 04:04:05;;;;;;;1999.90;999.90;;;16.30;99.90;;;;;;5032928;28;20392;-73
2022/07/08 04:06:31;;;;;;;1999.90;999.90;;;16.20;99.90;;;;;;5032864;28;20029;-73
2022/07/08 04:08:57;;;;;;;1999.90;999.90;;;16.20;99.90;;;;;;5043867;28;20029;-75
2022/07/08 04:11:23;;;;;;;1999.90;999.90;;;16.20;99.90;;;;;;5056708;28;20029;-73
2022/07/08 04:13:48;;;;;;;1999.90;999.90;;;16.20;99.90;;;;;;5056731;28;20060;-73
2022/07/08 04:16:14;;;;;;;1999.90;999.90;;;16.20;99.90;;;;;;5054548;28;20077;-75
2022/07/08 04:18:41;;;;;;;1999.90;999.90;;;16.20;99.90;;;;;;5031445;28;20119;-73
2022/07/08 04:21:08;;;;;;;1999.90;999.90;;;16.20;99.90;;;;;;5036624;28;20025;-73
2022/07/08 04:23:34;;;;;;;1999.90;999.90;;;16.20;99.90;;;;;;5036363;28;20113;-73
2022/07/08 04:26:00;;;;;;;1999.90;999.90;;;16.20;99.90;;;;;;5036605;28;20030;-75
2022/07/08 04:28:25;;;;;;;1999.90;999.90;;;16.20;99.90;;;;;;5036172;28;20099;-76
2022/07/08 04:30:51;;;;;;;1999.90;999.90;;;16.20;99.90;;;;;;5036551;28;20032;-75
2022/07/08 04:33:17;;;;;;;1999.90;999.90;;;16.20;99.90;;;;;;5035902;28;20083;-73
2022/07/08 04:35:43;;;;;;;1999.90;999.90;;;16.20;99.90;;;;;;5018548;28;20029;-73
2022/07/08 04:38:08;;;;;;;1999.90;999.90;;;16.20;99.90;;;;;;5045483;28;20047;-75
2022/07/08 04:40:35;;;;;;;1999.90;999.90;;;16.30;99.90;;;;;;5048286;28;20447;-75
2022/07/08 04:43:00;;;;;;;1999.90;999.90;;;16.30;99.90;;;;;;5022346;28;20017;-73
2022/07/08 04:45:26;;;;;;;1999.90;999.90;;;16.30;99.90;;;;;;5024097;28;20087;-73
2022/07/08 04:47:52;;;;;;;1999.90;999.90;;;16.30;99.90;;;;;;5036490;28;20033;-73
2022/07/08 04:50:18;;;;;;;1999.90;999.90;;;16.40;99.90;;;;;;5036289;28;20109;-73
2022/07/08 04:52:44;;;;;;;1999.90;999.90;;;16.40;99.90;;;;;;5035766;28;20436;-73
2022/07/08 04:55:27;;;;;;;1999.90;999.90;;;16.40;99.90;;;;;;5035950;28;20038;-73
2022/07/08 04:57:55;;;;;;;1999.90;999.90;;;16.40;99.90;;;;;;5036088;28;20061;-73
2022/07/08 05:00:20;;;;;;;1999.90;999.90;;;16.50;99.90;;;;;;5040633;28;20029;-73
2022/07/08 05:02:46;;;;;;;1999.90;999.90;;;16.50;99.90;;;;;;5046076;28;20033;-73
2022/07/08 05:05:12;;;;;;;1999.90;999.90;;;16.50;99.90;;;;;;5035709;28;20476;-75
2022/07/08 05:07:38;;;;;;;1999.90;999.90;;;16.50;99.90;;;;;;5035732;28;20036;-75
2022/07/08 05:10:04;;;;;;;1999.90;999.90;;;16.60;99.90;;;;;;5049873;28;20033;-73
2022/07/08 05:12:29;;;;;;;1999.90;999.90;;;16.60;99.90;;;;;;5045113;28;20060;-73
2022/07/08 05:14:55;;;;;;;1999.90;999.90;;;16.60;99.90;;;;;;5055512;28;20407;-74
2022/07/08 05:17:20;;;;;;;1999.90;999.90;;;16.60;99.90;;;;;;5045840;28;20088;-75
2022/07/08 05:19:46;;;;;;;1999.90;999.90;;;16.70;99.90;;;;;;5035243;28;20029;-73
2022/07/08 05:22:12;;;;;;;1999.90;999.90;;;16.70;99.90;;;;;;5035348;28;20028;-73
2022/07/08 05:24:37;;;;;;;1999.90;999.90;;;16.70;99.90;;;;;;5035243;28;20030;-73
2022/07/08 05:27:03;;;;;;;1999.90;999.90;;;16.80;99.90;;;;;;5035511;28;20473;-73
2022/07/08 05:29:29;;;;;;;1999.90;999.90;;;16.80;99.90;;;;;;5035229;28;20033;-73
2022/07/08 05:31:55;;;;;;;1999.90;999.90;;;16.90;99.90;;;;;;5035482;28;20108;-75
2022/07/08 05:34:21;;;;;;;1999.90;999.90;;;16.90;99.90;;;;;;5034107;28;20034;-73
2022/07/08 05:36:48;;;;;;;1999.90;999.90;;;17.00;99.90;;;;;;5049558;28;20049;-73
2022/07/08 05:39:14;;;;;;;1999.90;999.90;;;17.00;99.90;;;;;;5063974;28;20033;-75
2022/07/08 05:41:40;;;;;;;1999.90;999.90;;;17.10;99.90;;;;;;5035083;28;20029;-73
2022/07/08 05:44:06;;;;;;;1999.90;999.90;;;17.10;99.90;;;;;;5045561;28;20025;-75
2022/07/08 05:46:32;;;;;;;1999.90;999.90;;;17.20;99.90;;;;;;5043120;28;20017;-76
2022/07/08 05:48:58;;;;;;;1999.90;999.90;;;17.30;99.90;;;;;;5046293;28;20031;-75
2022/07/08 05:51:24;;;;;;;1999.90;999.90;;;17.30;99.90;;;;;;5042488;28;20097;-73
2022/07/08 05:53:49;;;;;;;1999.90;999.90;;;17.30;99.90;;;;;;5033425;28;20457;-73
2022/07/08 05:56:15;;;;;;;1999.90;999.90;;;17.40;99.90;;;;;;5033576;28;20100;-75
2022/07/08 05:58:41;;;;;;;1999.90;999.90;;;17.50;99.90;;;;;;5020617;28;20021;-75
2022/07/08 06:01:06;;;;;;;1999.90;999.90;;;17.50;99.90;;;;;;5043722;28;20056;-73
2022/07/08 06:03:32;;;;;;;1999.90;999.90;;;17.60;99.90;;;;;;5046580;28;20115;-74
2022/07/08 06:05:58;;;;;;;1999.90;999.90;;;17.60;99.90;;;;;;5034673;28;20029;-75
2022/07/08 06:08:23;;;;;;;1999.90;999.90;;;17.70;99.90;;;;;;5043529;28;20037;-75
2022/07/08 06:10:49;;;;;;;1999.90;999.90;;;17.80;99.90;;;;;;5059648;28;20048;-75
2022/07/08 06:13:15;;;;;;;1999.90;999.90;;;17.90;99.90;;;;;;5041372;28;20069;-75
2022/07/08 06:15:40;;;;;;;1999.90;999.90;;;18.00;99.90;;;;;;5040490;28;20030;-73
2022/07/08 06:18:06;;;;;;;1999.90;999.90;;;18.10;99.90;;;;;;5044030;28;20026;-73
2022/07/08 06:20:32;;;;;;;1999.90;999.90;;;18.20;99.90;;;;;;5034408;28;20443;-73
2022/07/08 06:22:58;;;;;;;1999.90;999.90;;;18.30;99.90;;;;;;5042840;28;20009;-75
2022/07/08 06:25:24;;;;;;;1999.90;999.90;;;18.40;99.90;;;;;;5031023;28;20155;-75
2022/07/08 06:27:49;;;;;;;1999.90;999.90;;;18.40;99.90;;;;;;5048645;28;20033;-75
2022/07/08 06:30:15;;;;;;;1999.90;999.90;;;18.50;99.90;;;;;;5041533;28;20079;-73
2022/07/08 06:32:41;;;;;;;1999.90;999.90;;;18.60;99.90;;;;;;5042221;28;20055;-73
2022/07/08 06:35:07;;;;;;;1999.90;999.90;;;18.70;99.90;;;;;;5045123;28;20484;-75
2022/07/08 06:37:32;;;;;;;1999.90;999.90;;;18.80;99.90;;;;;;5046778;28;20041;-74
2022/07/08 06:39:58;;;;;;;1999.90;999.90;;;18.80;99.90;;;;;;5047461;28;20433;-73
2022/07/08 06:42:24;;;;;;;1999.90;999.90;;;18.90;99.90;;;;;;5033796;28;20026;-75
2022/07/08 06:44:49;;;;;;;1999.90;999.90;;;19.00;99.90;;;;;;5041436;28;20017;-75
2022/07/08 06:47:15;;;;;;;1999.90;999.90;;;19.10;99.90;;;;;;5037839;28;20021;-75
2022/07/08 06:49:41;;;;;;;1999.90;999.90;;;19.10;99.90;;;;;;5040513;28;20497;-75
2022/07/08 06:52:07;;;;;;;1999.90;999.90;;;19.20;99.90;;;;;;5043544;28;20119;-73
2022/07/08 06:54:35;;;;;;;1999.90;999.90;;;19.30;99.90;;;;;;5046865;28;20476;-73
2022/07/08 06:57:04;;;;;;;1999.90;999.90;;;19.30;99.90;;;;;;5038220;28;20029;-73
2022/07/08 06:59:30;;;;;;;1999.90;999.90;;;19.40;99.90;;;;;;5041322;28;20129;-75
2022/07/08 07:01:56;;;;;;;1999.90;999.90;;;19.50;99.90;;;;;;5045385;28;20214;-74
2022/07/08 07:04:21;;;;;;;1999.90;999.90;;;19.60;99.90;;;;;;5034445;28;20025;-75
2022/07/08 07:06:47;;;;;;;1999.90;999.90;;;19.70;99.90;;;;;;5047651;28;20041;-73
2022/07/08 07:09:14;;;;;;;1999.90;999.90;;;19.90;99.90;;;;;;5043713;28;20443;-73
2022/07/08 07:11:40;;;;;;;1999.90;999.90;;;19.90;99.90;;;;;;5045904;28;20024;-73
2022/07/08 07:14:06;;;;;;;1999.90;999.90;;;20.00;99.90;;;;;;5037080;28;20021;-75
2022/07/08 07:16:33;;;;;;;1999.90;999.90;;;20.10;99.90;;;;;;5033516;28;20499;-75
2022/07/08 07:18:59;;;;;;;1999.90;999.90;;;20.20;99.90;;;;;;5040900;28;20087;-74
2022/07/08 07:21:24;;;;;;;1999.90;999.90;;;20.20;99.90;;;;;;5040226;28;20102;-75
2022/07/08 07:23:50;;;;;;;1999.90;999.90;;;20.20;99.90;;;;;;5042597;28;20498;-75
2022/07/08 07:26:16;;;;;;;1999.90;999.90;;;20.30;99.90;;;;;;5038374;28;20633;-73
2022/07/08 07:28:41;;;;;;;1999.90;999.90;;;20.40;99.90;;;;;;5038650;28;20021;-75
2022/07/08 07:31:07;;;;;;;1999.90;999.90;;;20.50;99.90;;;;;;5039311;28;20029;-75
2022/07/08 07:33:33;;;;;;;1999.90;999.90;;;20.50;99.90;;;;;;5040667;28;20080;-74
2022/07/08 07:35:59;;;;;;;1999.90;999.90;;;20.90;99.90;;;;;;5041957;28;20448;-74
2022/07/08 07:38:24;;;;;;;1999.90;999.90;;;21.50;99.50;;;;;;5043268;28;20052;-74
2022/07/08 07:40:51;;;;;;;1999.90;999.90;;;23.50;96.30;;;;;;5037468;28;20025;-76
2022/07/08 07:43:16;;;;;;;1999.90;999.90;;;25.80;93.30;;;;;;5049148;28;20037;-76
2022/07/08 07:45:42;;;;;;;1999.90;999.90;;;27.40;91.50;;;;;;5043297;28;20018;-74
2022/07/08 07:48:08;;;;;;;1999.90;999.90;;;28.10;90.30;;;;;;5040959;28;20029;-74
2022/07/08 07:50:33;;;;;;;1999.90;999.90;;;28.40;88.80;;;;;;5043412;28;20033;-74
2022/07/08 07:52:59;;;;;;;1999.90;999.90;;;28.40;87.70;;;;;;5034358;28;20048;-76
2022/07/08 07:55:24;;;;;;;1999.90;999.90;;;28.60;87.60;;;;;;5044854;28;20048;-76
2022/07/08 07:57:50;;;;;;;1999.90;999.90;;;29.10;86.70;;;;;;5038367;28;20028;-77
2022/07/08 08:00:17;;;;;;;1999.90;999.90;;;29.80;86.30;;;;;;5044573;28;20025;-74
2022/07/08 08:02:43;;;;;;;1999.90;999.90;;;30.10;85.20;;;;;;5037210;28;20087;-74
2022/07/08 08:05:10;;;;;;;1999.90;999.90;;;30.50;84.00;;;;;;5032483;28;20036;-75
2022/07/08 08:07:40;;;;;;;1999.90;999.90;;;30.60;83.10;;;;;;5028271;28;20108;-76
2022/07/08 08:10:07;;;;;;;1999.90;999.90;;;30.80;83.00;;;;;;5045087;28;20096;-76
2022/07/08 08:12:33;;;;;;;1999.90;999.90;;;31.00;82.00;;;;;;5039959;28;20108;-74
2022/07/08 08:14:58;;;;;;;1999.90;999.90;;;31.30;81.80;;;;;;5038698;28;20572;-74
2022/07/08 08:17:24;;;;;;;1999.90;999.90;;;31.20;81.70;;;;;;5038006;28;20017;-72
2022/07/08 08:19:50;;;;;;;1999.90;999.90;;;31.50;81.20;;;;;;5043222;28;20017;-74
2022/07/08 08:22:15;;;;;;;1999.90;999.90;;;31.80;80.80;;;;;;5039230;28;20014;-73
2022/07/08 08:24:42;;;;;;;1999.90;999.90;;;32.20;79.90;;;;;;5036662;28;20446;-72
2022/07/08 08:27:08;;;;;;;1999.90;999.90;;;32.60;79.40;;;;;;5039667;28;20021;-72
2022/07/08 08:29:34;;;;;;;1999.90;999.90;;;32.60;78.70;;;;;;5042660;28;20152;-74
2022/07/08 08:32:00;;;;;;;1999.90;999.90;;;32.70;78.80;;;;;;5043250;28;20055;-74
2022/07/08 08:34:25;;;;;;;1999.90;999.90;;;32.80;77.50;;;;;;5042557;28;20099;-74
2022/07/08 08:36:51;;;;;;;1999.90;999.90;;;32.50;77.60;;;;;;5044155;28;20037;-73
2022/07/08 08:39:16;;;;;;;1999.90;999.90;;;33.00;77.50;;;;;;5040809;28;20036;-74
2022/07/08 08:41:42;;;;;;;1999.90;999.90;;;33.20;76.70;;;;;;5048831;28;20032;-72
2022/07/08 08:44:09;;;;;;;1999.90;999.90;;;33.30;76.90;;;;;;5044021;28;20422;-74
2022/07/08 08:46:36;;;;;;;1999.90;999.90;;;33.40;76.50;;;;;;5036078;28;20072;-74
2022/07/08 08:49:02;;;;;;;1999.90;999.90;;;33.00;76.60;;;;;;5045767;28;20033;-73
2022/07/08 08:51:32;;;;;;;1999.90;999.90;;;32.80;76.50;;;;;;5032753;28;20029;-72
2022/07/08 08:54:01;;;;;;;1999.90;999.90;;;33.20;76.80;;;;;;5046111;28;20079;-72
2022/07/08 08:56:27;;;;;;;1999.90;999.90;;;33.20;76.20;;;;;;5050175;28;20060;-74
2022/07/08 08:58:53;;;;;;;1999.90;999.90;;;33.40;75.80;;;;;;5049210;28;20142;-74
2022/07/08 09:01:21;;;;;;;1999.90;999.90;;;33.70;76.70;;;;;;5035594;28;20021;-74
2022/07/08 09:03:47;;;;;;;1999.90;999.90;;;34.10;75.00;;;;;;5028274;28;20025;-72
2022/07/08 09:06:13;;;;;;;1999.90;999.90;;;34.50;75.20;;;;;;5043558;28;20028;-72
2022/07/08 09:08:39;;;;;;;1999.90;999.90;;;34.60;74.50;;;;;;5046900;28;20032;-74
2022/07/08 09:11:06;;;;;;;1999.90;999.90;;;35.10;74.20;;;;;;5052974;28;20032;-75
2022/07/08 09:13:32;;;;;;;1999.90;999.90;;;34.40;74.10;;;;;;5039062;28;20075;-74
2022/07/08 09:15:58;;;;;;;1999.90;999.90;;;35.00;74.20;;;;;;5052653;28;20041;-74
2022/07/08 09:18:35;;;;;;;1999.90;999.90;;;34.80;73.40;;;;;;5038705;28;20032;-72
2022/07/08 09:21:02;;;;;;;1999.90;999.90;;;35.20;73.20;;;;;;5039751;28;20046;-72
2022/07/08 09:23:31;;;;;;;1999.90;999.90;;;35.60;73.10;;;;;;5049492;28;20028;-75
2022/07/08 09:26:10;;;;;;;1999.90;999.90;;;35.20;73.20;;;;;;5049930;28;20053;-74
2022/07/08 09:28:43;;;;;;;1999.90;999.90;;;35.10;72.50;;;;;;5048108;28;20025;-74
2022/07/08 09:31:13;;;;;;;1999.90;999.90;;;34.90;72.30;;;;;;5046521;28;20436;-72
2022/07/08 09:33:39;;;;;;;1999.90;999.90;;;34.90;72.60;;;;;;5049513;28;20405;-72
2022/07/08 09:36:07;;;;;;;1999.90;999.90;;;35.10;71.80;;;;;;5036188;28;20033;-72
2022/07/08 09:38:35;;;;;;;1999.90;999.90;;;34.80;71.40;;;;;;5049680;28;20052;-74
2022/07/08 09:41:02;;;;;;;1999.90;999.90;;;34.80;72.40;;;;;;5041477;28;20388;-74
2022/07/08 09:43:28;;;;;;;1999.90;999.90;;;34.90;71.80;;;;;;5049021;28;20025;-73
2022/07/08 09:45:54;;;;;;;1999.90;999.90;;;35.50;72.30;;;;;;5029858;28;20022;-74
2022/07/08 09:48:23;;;;;;;1999.90;999.90;;;35.70;70.80;;;;;;5032165;28;20052;-73
2022/07/08 09:50:49;;;;;;;1999.90;999.90;;;36.10;69.70;;;;;;5038116;28;20028;-75
2022/07/08 09:53:24;;;;;;;1999.90;999.90;;;35.30;70.80;;;;;;5040815;28;20026;-73
2022/07/08 09:55:54;;;;;;;1999.90;999.90;;;35.10;70.60;;;;;;5049437;28;20036;-73
2022/07/08 09:58:23;;;;;;;1999.90;999.90;;;34.50;70.30;;;;;;5048019;28;20550;-72
2022/07/08 10:00:51;;;;;;;1999.90;999.90;;;35.50;69.60;;;;;;5041861;28;20033;-73
2022/07/08 10:03:17;;;;;;;1999.90;999.90;;;35.90;70.10;;;;;;5043288;28;20021;-73
2022/07/08 10:05:44;;;;;;;1999.90;999.90;;;36.10;69.80;;;;;;5055562;28;20028;-73
2022/07/08 10:08:10;;;;;;;1999.90;999.90;;;36.20;70.40;;;;;;5045271;28;20388;-73
2022/07/08 10:10:38;;;;;;;1999.90;999.90;;;35.90;68.50;;;;;;5046106;28;20032;-73
2022/07/08 10:13:04;;;;;;;1999.90;999.90;;;35.60;68.80;;;;;;5033849;28;20410;-73
2022/07/08 10:15:32;;;;;;;1999.90;999.90;;;35.50;69.10;;;;;;5045064;28;20017;-73
2022/07/08 10:18:06;;;;;;;1999.90;999.90;;;35.70;68.50;;;;;;5037829;28;20086;-73
2022/07/08 10:20:35;;;;;;;1999.90;999.90;;;35.70;68.00;;;;;;5035348;28;20415;-73
2022/07/08 10:23:06;;;;;;;1999.90;999.90;;;35.90;68.20;;;;;;5052213;28;20029;-73
2022/07/08 10:25:32;;;;;;;;;;;36.10;68.50;;;;;;5041687;28;20028;-73
2022/07/08 10:28:09;;;;;;;1999.90;999.90;;;35.80;68.10;;;;;;5036940;28;19905;-73
2022/07/08 10:30:51;;;;;;;1999.90;999.90;;;35.60;67.40;;;;;;5033304;28;20123;-73
2022/07/08 10:33:25;;;;;;;1999.90;999.90;;;36.10;67.30;;;;;;5033249;28;20026;-73
2022/07/08 10:36:04;;;;;;;1999.90;999.90;;;36.30;67.50;;;;;;5036722;28;20155;-73
2022/07/08 10:38:35;;;;;;;1999.90;999.90;;;35.90;66.90;;;;;;5039813;28;20045;-73
2022/07/08 10:41:04;;;;;;;1999.90;999.90;;;36.00;68.50;;;;;;5038968;28;20060;-73
2022/07/08 10:43:30;;;;;;;1999.90;999.90;;;35.80;66.70;;;;;;5050618;28;20057;-74
2022/07/08 10:46:12;;;;;;;1999.90;999.90;;;36.20;67.10;;;;;;5036076;28;20156;-73
2022/07/08 10:48:40;;;;;;;1999.90;999.90;;;35.80;67.40;;;;;;5046589;28;20028;-73
2022/07/08 10:51:29;;;;;;;1999.90;999.90;;;35.60;67.40;;;;;;5030481;28;20052;-73
2022/07/08 10:53:56;;;;;;;1999.90;999.90;;;35.80;66.20;;;;;;5046357;28;20017;-73
2022/07/08 10:56:52;;;;;;;1999.90;999.90;;;36.10;67.10;;;;;;5048692;28;20107;-73
2022/07/08 10:59:19;;;;;;;1999.90;999.90;;;35.80;66.60;;;;;;5045327;28;20503;-73
2022/07/08 11:01:52;;;;;;;1999.90;999.90;;;35.30;67.00;;;;;;5046605;28;20055;-73
2022/07/08 11:04:28;;;;;;;1999.90;999.90;;;35.70;65.90;;;;;;5050304;28;20025;-73
2022/07/08 11:06:56;;;;;;;1999.90;999.90;;;35.80;66.20;;;;;;5044478;28;20029;-73
2022/07/08 11:09:23;;;;;;;1999.90;999.90;;;36.10;67.10;;;;;;5049031;28;20021;-73
2022/07/08 11:11:49;;;;;;;1999.90;999.90;;;35.40;66.50;;;;;;5046786;28;20021;-73
2022/07/08 11:14:15;;;;;;;1999.90;999.90;;;34.90;66.80;;;;;;5051785;28;20051;-73
2022/07/08 11:16:41;;;;;;;1999.90;999.90;;;35.30;66.60;;;;;;5051313;28;20136;-73
2022/07/08 11:19:07;;;;;;;1999.90;999.90;;;35.50;66.00;;;;;;5052341;28;20024;-74
2022/07/08 11:21:33;;;;;;;1999.90;999.90;;;34.70;66.10;;;;;;5017015;28;20396;-73
2022/07/08 11:23:59;;;;;;;1999.90;999.90;;;35.00;65.90;;;;;;5042036;28;20024;-73
2022/07/08 11:26:25;;;;;;;1999.90;999.90;;;35.70;67.00;;;;;;5047529;28;20033;-73
2022/07/08 11:28:51;;;;;;;1999.90;999.90;;;35.60;63.90;;;;;;5032125;28;20029;-73
2022/07/08 11:31:34;;;;;;;1999.90;999.90;;;35.90;65.40;;;;;;5032191;28;20036;-73
2022/07/08 11:34:00;;;;;;;1999.90;999.90;;;35.80;65.50;;;;;;5034789;28;20033;-73
2022/07/08 11:36:26;;;;;;;1999.90;999.90;;;35.50;65.20;;;;;;5032348;28;20049;-73
2022/07/08 11:38:51;;;;;;;1999.90;999.90;;;35.00;66.20;;;;;;5041490;28;20412;-73
2022/07/08 11:41:20;;;;;;;1999.90;999.90;;;34.90;65.70;;;;;;5037330;28;20139;-73
2022/07/08 11:43:47;;;;;;;1999.90;999.90;;;35.10;65.00;;;;;;5047558;28;20383;-73
2022/07/08 11:46:18;;;;;;;1999.90;999.90;;;35.70;65.90;;;;;;5031978;28;20025;-73
2022/07/08 11:48:43;;;;;;;1999.90;999.90;;;35.80;64.20;;;;;;5031763;28;20029;-73
2022/07/08 11:51:12;;;;;;;1999.90;999.90;;;35.80;64.70;;;;;;5032163;28;20040;-73
2022/07/08 11:53:38;;;;;;;1999.90;999.90;;;34.60;64.60;;;;;;5031988;28;20029;-73
2022/07/08 11:56:04;;;;;;;1999.90;999.90;;;35.10;65.60;;;;;;5039508;28;20488;-73